createdAt,value
2018-12-14T00:00:11.792Z,98.68
2018-12-14T00:03:15.123Z,98.24
2018-12-14T00:06:18.507Z,98.04
2018-12-14T00:09:21.858Z,97.83
2018-12-14T00:12:25.262Z,99.02
2018-12-14T00:15:29.339Z,98.21
2018-12-14T00:18:32.671Z,98.12
2018-12-14T00:21:35.971Z,97.63
2018-12-14T00:24:39.372Z,97.86
2018-12-14T00:27:42.669Z,97.24
2018-12-14T00:30:46.042Z,97.01
2018-12-14T00:33:49.453Z,97.25
2018-12-14T00:36:52.821Z,97.13
2018-12-14T00:39:56.165Z,96.94
2018-12-14T00:42:59.554Z,97.39
2018-12-14T00:46:02.933Z,97.16
2018-12-14T00:49:06.306Z,96.08
2018-12-14T00:52:09.670Z,96.68
2018-12-14T00:55:13.051Z,96.19
2018-12-14T00:58:16.700Z,96.04
2018-12-14T01:01:20.041Z,96.54
2018-12-14T01:04:23.366Z,96.48
2018-12-14T01:07:26.720Z,95.57
2018-12-14T01:10:30.040Z,96.32
2018-12-14T01:13:33.363Z,96.06
2018-12-14T01:16:36.878Z,96.29
2018-12-14T01:19:40.417Z,95.50
2018-12-14T01:22:43.800Z,94.96
2018-12-14T01:25:47.186Z,95.74
2018-12-14T01:28:50.501Z,96.01
2018-12-14T01:31:53.948Z,95.83
2018-12-14T01:34:57.253Z,94.35
2018-12-14T01:38:00.574Z,93.19
2018-12-14T01:41:03.946Z,93.44
2018-12-14T01:44:07.326Z,93.42
2018-12-14T01:47:10.664Z,93.54
2018-12-14T01:50:14.093Z,93.29
2018-12-14T01:53:17.398Z,93.61
2018-12-14T01:56:20.707Z,93.66
2018-12-14T01:59:24.090Z,93.65
2018-12-14T02:05:44.242Z,93.79
2018-12-14T02:08:47.549Z,94.09
2018-12-14T02:11:50.885Z,94.37
2018-12-14T02:14:54.338Z,94.74
2018-12-14T02:17:57.646Z,93.75
2018-12-14T02:21:00.974Z,93.06
2018-12-14T02:24:04.311Z,93.27
2018-12-14T02:27:07.673Z,94.15
2018-12-14T02:30:36.658Z,94.54
2018-12-14T02:33:40.026Z,94.95
2018-12-14T02:36:43.322Z,93.69
2018-12-14T02:39:46.637Z,93.94
2018-12-14T02:42:49.949Z,93.87
2018-12-14T02:45:53.292Z,93.62
2018-12-14T02:48:56.614Z,93.15
2018-12-14T02:51:59.993Z,92.28
2018-12-14T02:55:03.524Z,92.23
2018-12-14T02:58:06.942Z,92.58
2018-12-14T03:01:10.309Z,92.78
2018-12-14T03:04:13.611Z,93.59
2018-12-14T03:07:17.004Z,94.00
2018-12-14T03:10:20.444Z,94.24
2018-12-14T03:13:23.778Z,94.36
2018-12-14T03:16:27.110Z,94.13
2018-12-14T03:19:30.509Z,93.26
2018-12-14T03:25:51.273Z,94.22
2018-12-14T03:28:55.279Z,93.84
2018-12-14T03:31:58.882Z,94.45
2018-12-14T03:35:02.297Z,93.28
2018-12-14T03:38:05.612Z,93.71
2018-12-14T03:41:09.101Z,92.74
2018-12-14T03:44:12.413Z,93.51
2018-12-14T03:47:15.786Z,92.43
2018-12-14T03:50:19.193Z,92.15
2018-12-14T03:53:22.509Z,91.60
2018-12-14T03:56:25.861Z,92.94
2018-12-14T03:59:29.182Z,92.92
2018-12-14T04:02:32.578Z,93.07
2018-12-14T04:05:36.241Z,93.26
2018-12-14T04:08:39.559Z,93.79
2018-12-14T04:11:42.932Z,94.22
2018-12-14T04:14:46.245Z,94.82
2018-12-14T04:17:49.591Z,95.48
2018-12-14T04:20:52.943Z,95.36
2018-12-14T04:23:56.259Z,95.26
2018-12-14T04:26:59.570Z,94.61
2018-12-14T04:30:03.342Z,95.25
2018-12-14T04:33:06.691Z,95.08
2018-12-14T04:36:10.054Z,95.71
2018-12-14T04:39:13.464Z,95.17
2018-12-14T04:42:16.758Z,94.61
2018-12-14T04:45:20.279Z,95.08
2018-12-14T04:48:23.660Z,94.81
2018-12-14T04:51:26.985Z,95.17
2018-12-14T04:54:30.294Z,94.81
2018-12-14T04:57:33.610Z,94.52
2018-12-14T05:00:37.024Z,94.39
2018-12-14T05:03:40.422Z,94.62
2018-12-14T05:06:43.786Z,94.88
2018-12-14T05:09:47.164Z,94.84
2018-12-14T05:12:55.982Z,94.62
2018-12-14T05:15:55.986Z,93.65
2018-12-14T05:18:59.311Z,94.23
2018-12-14T05:22:03.165Z,94.46
2018-12-14T05:25:06.508Z,93.87
2018-12-14T05:28:09.838Z,94.51
2018-12-14T05:31:13.208Z,93.03
2018-12-14T05:34:16.563Z,92.90
2018-12-14T05:37:20.044Z,93.02
2018-12-14T05:40:23.373Z,91.56
2018-12-14T05:43:26.681Z,91.15
2018-12-14T05:46:29.998Z,92.26
2018-12-14T05:49:33.305Z,92.47
2018-12-14T05:52:36.638Z,93.19
2018-12-14T05:55:40.166Z,93.83
2018-12-14T05:58:43.511Z,94.07
2018-12-14T06:01:46.849Z,93.36
2018-12-14T06:04:50.163Z,92.08
2018-12-14T06:07:53.494Z,92.03
2018-12-14T06:10:56.847Z,90.84
2018-12-14T06:14:00.249Z,89.66
2018-12-14T06:17:03.601Z,89.88
2018-12-14T06:20:07.221Z,90.68
2018-12-14T06:23:10.554Z,89.86
2018-12-14T06:26:14.013Z,89.75
2018-12-14T06:29:17.389Z,90.09
2018-12-14T06:32:20.752Z,89.64
2018-12-14T06:35:24.154Z,89.52
2018-12-14T06:38:27.455Z,90.63
2018-12-14T06:41:30.852Z,91.44
2018-12-14T06:44:34.241Z,90.93
2018-12-14T06:47:37.595Z,90.57
2018-12-14T06:50:40.981Z,89.36
2018-12-14T06:53:44.317Z,90.02
2018-12-14T06:56:47.681Z,89.61
2018-12-14T06:59:51.081Z,88.91
2018-12-14T07:02:54.438Z,89.77
2018-12-14T07:05:57.749Z,90.66
2018-12-14T07:09:01.099Z,90.69
2018-12-14T07:12:08.101Z,91.83
2018-12-14T07:15:11.627Z,91.45
2018-12-14T07:18:15.001Z,91.27
2018-12-14T07:21:18.527Z,90.87
2018-12-14T07:24:21.931Z,90.52
2018-12-14T07:27:25.325Z,90.56
2018-12-14T07:30:28.726Z,90.67
2018-12-14T07:33:32.129Z,89.66
2018-12-14T07:36:35.529Z,89.65
2018-12-14T07:39:38.905Z,89.70
2018-12-14T07:42:43.021Z,89.03
2018-12-14T07:45:46.430Z,88.19
2018-12-14T07:48:49.825Z,87.48
2018-12-14T07:51:53.170Z,87.97
2018-12-14T07:54:56.520Z,88.09
2018-12-14T07:57:59.941Z,87.17
2018-12-14T08:01:03.261Z,86.01
2018-12-14T08:04:06.590Z,86.75
2018-12-14T08:07:10.210Z,87.70
2018-12-14T08:10:13.730Z,86.70
2018-12-14T08:13:17.096Z,86.00
2018-12-14T08:16:20.406Z,86.59
2018-12-14T08:19:23.796Z,87.14
2018-12-14T08:22:27.332Z,87.35
2018-12-14T08:25:30.726Z,88.02
2018-12-14T08:28:34.131Z,87.52
2018-12-14T08:31:37.635Z,87.33
2018-12-14T08:34:40.970Z,87.62
2018-12-14T08:37:44.276Z,86.88
2018-12-14T08:40:47.613Z,87.05
2018-12-14T08:43:51.027Z,87.45
2018-12-14T08:46:54.421Z,88.85
2018-12-14T08:49:57.822Z,87.75
2018-12-14T08:53:01.177Z,88.74
2018-12-14T08:56:04.875Z,88.49
2018-12-14T08:59:08.191Z,88.01
2018-12-14T09:02:11.525Z,87.19
2018-12-14T09:05:14.925Z,87.23
2018-12-14T09:08:18.424Z,87.52
2018-12-14T09:11:21.840Z,87.62
2018-12-14T09:14:25.236Z,86.35
2018-12-14T09:17:28.567Z,86.73
2018-12-14T09:20:31.996Z,86.12
2018-12-14T09:23:35.297Z,86.19
2018-12-14T09:26:38.641Z,86.86
2018-12-14T09:29:42.021Z,86.77
2018-12-14T09:32:45.381Z,87.05
2018-12-14T09:35:48.821Z,87.56
2018-12-14T09:38:52.462Z,86.69
2018-12-14T09:41:55.884Z,87.35
2018-12-14T09:48:07.950Z,85.74
2018-12-14T09:51:12.472Z,86.14
2018-12-14T09:54:16.107Z,86.60
2018-12-14T09:57:19.898Z,85.63
2018-12-14T10:00:23.294Z,86.75
2018-12-14T10:03:26.628Z,85.40
2018-12-14T10:06:29.985Z,85.68
2018-12-14T10:09:33.318Z,84.79
2018-12-14T10:12:36.787Z,83.15
2018-12-14T10:15:40.180Z,84.08
2018-12-14T10:18:43.826Z,83.05
2018-12-14T10:21:47.201Z,83.17
2018-12-14T10:24:50.594Z,82.70
2018-12-14T10:27:53.942Z,82.07
2018-12-14T10:30:57.279Z,82.61
2018-12-14T10:34:00.598Z,82.84
2018-12-14T10:37:03.999Z,82.61
2018-12-14T10:40:12.002Z,83.55
2018-12-14T10:43:15.409Z,84.63
2018-12-14T10:46:18.803Z,84.35
2018-12-14T10:49:22.202Z,84.49
2018-12-14T10:52:25.564Z,84.87
2018-12-14T10:55:28.902Z,84.89
2018-12-14T10:58:32.210Z,84.90
2018-12-14T11:01:41.127Z,83.22
2018-12-14T11:04:44.521Z,82.78
2018-12-14T11:07:47.921Z,81.53
2018-12-14T11:10:51.320Z,81.14
2018-12-14T11:13:54.626Z,81.43
2018-12-14T11:16:57.985Z,82.74
2018-12-14T11:20:01.303Z,81.82
2018-12-14T11:23:04.842Z,80.44
2018-12-14T11:26:08.153Z,79.68
2018-12-14T11:29:11.530Z,80.65
2018-12-14T11:32:14.926Z,80.27
2018-12-14T11:35:18.323Z,79.71
2018-12-14T11:38:21.629Z,80.09
2018-12-14T11:41:25.152Z,80.27
2018-12-14T11:44:28.453Z,80.24
2018-12-14T11:47:31.761Z,80.57
2018-12-14T11:50:35.107Z,79.91
2018-12-14T11:53:38.453Z,80.93
2018-12-14T11:56:41.884Z,80.52
2018-12-14T11:59:45.265Z,79.52
2018-12-14T12:02:48.597Z,78.80
2018-12-14T12:05:51.926Z,78.85
2018-12-14T12:08:55.320Z,77.87
2018-12-14T12:11:58.709Z,77.98
2018-12-14T12:15:02.071Z,78.57
2018-12-14T12:18:05.514Z,79.56
2018-12-14T12:21:08.920Z,77.12
2018-12-14T12:24:12.278Z,77.35
2018-12-14T12:27:15.616Z,76.62
2018-12-14T12:30:18.963Z,78.56
2018-12-14T12:33:22.309Z,76.83
2018-12-14T12:36:25.714Z,77.87
2018-12-14T12:39:29.027Z,77.04
2018-12-14T12:42:32.366Z,75.54
2018-12-14T12:45:35.801Z,75.46
2018-12-14T12:48:39.559Z,75.47
2018-12-14T12:51:43.072Z,75.65
2018-12-14T12:54:46.433Z,76.91
2018-12-14T12:57:49.771Z,77.62
2018-12-14T13:00:53.126Z,76.87
2018-12-14T13:03:56.574Z,77.60
2018-12-14T13:07:00.010Z,78.38
2018-12-14T13:10:03.493Z,77.49
2018-12-14T13:13:06.989Z,77.56
2018-12-14T13:16:10.303Z,78.15
2018-12-14T13:19:13.641Z,77.57
2018-12-14T13:22:17.123Z,78.61
2018-12-14T13:25:20.578Z,77.59
2018-12-14T13:28:24.186Z,78.77
2018-12-14T13:31:27.484Z,78.53
2018-12-14T13:34:31.021Z,78.05
2018-12-14T13:37:34.442Z,77.70
2018-12-14T13:40:37.759Z,77.78
2018-12-14T13:43:41.273Z,78.72
2018-12-14T13:46:44.735Z,79.21
2018-12-14T13:49:48.147Z,77.76
2018-12-14T13:52:51.625Z,75.82
2018-12-14T13:55:55.022Z,78.77
2018-12-14T13:58:58.341Z,79.32
2018-12-14T14:02:01.641Z,80.19
2018-12-14T14:05:05.550Z,81.13
2018-12-14T14:08:08.854Z,80.16
2018-12-14T14:11:12.165Z,79.99
2018-12-14T14:14:15.534Z,80.64
2018-12-14T14:17:18.938Z,82.09
2018-12-14T14:20:22.450Z,81.74
2018-12-14T14:23:25.939Z,81.03
2018-12-14T14:26:29.321Z,80.79
2018-12-14T14:29:32.653Z,82.39
2018-12-14T14:32:36.032Z,82.81
2018-12-14T14:35:39.469Z,82.99
2018-12-14T14:38:42.782Z,83.36
2018-12-14T14:41:46.135Z,82.42
2018-12-14T14:44:49.525Z,83.00
2018-12-14T14:47:52.839Z,82.87
2018-12-14T14:50:56.220Z,82.79
2018-12-14T14:53:59.533Z,82.15
2018-12-14T14:57:02.874Z,83.58
2018-12-14T15:00:07.293Z,82.05
2018-12-14T15:03:10.683Z,82.76
2018-12-14T15:06:14.132Z,82.99
2018-12-14T15:09:18.827Z,82.95
2018-12-14T15:12:22.278Z,83.99
2018-12-14T15:15:25.680Z,84.79
2018-12-14T15:18:29.031Z,84.15
2018-12-14T15:21:32.343Z,83.97
2018-12-14T15:24:35.687Z,83.91
2018-12-14T15:27:39.083Z,84.06
2018-12-14T15:30:42.409Z,85.28
2018-12-14T15:33:45.721Z,85.71
2018-12-14T15:36:49.079Z,85.69
2018-12-14T15:39:52.475Z,86.26
2018-12-14T15:42:55.819Z,87.66
2018-12-14T15:45:59.137Z,88.13
2018-12-14T15:49:02.570Z,86.95
2018-12-14T15:52:05.918Z,86.60
2018-12-14T15:55:09.338Z,86.95
2018-12-14T15:58:12.681Z,86.77
2018-12-14T16:01:16.066Z,87.03
2018-12-14T16:04:19.476Z,86.84
2018-12-14T16:07:22.865Z,87.48
2018-12-14T16:10:26.252Z,86.59
2018-12-14T16:13:29.627Z,87.11
2018-12-14T16:16:33.245Z,86.82
2018-12-14T16:19:36.673Z,86.00
2018-12-14T16:22:40.184Z,86.61
2018-12-14T16:25:43.586Z,88.05
2018-12-14T16:28:46.977Z,86.76
2018-12-14T16:31:50.318Z,87.00
2018-12-14T16:34:53.632Z,87.04
2018-12-14T16:37:56.971Z,86.46
2018-12-14T16:41:00.376Z,85.81
2018-12-14T16:44:03.686Z,85.85
2018-12-14T16:47:07.064Z,86.16
2018-12-14T16:50:10.472Z,86.22
2018-12-14T16:53:13.813Z,84.83
2018-12-14T16:56:17.187Z,86.34
2018-12-14T16:59:20.589Z,86.17
2018-12-14T17:02:24.009Z,86.60
2018-12-14T17:05:27.327Z,86.87
2018-12-14T17:08:30.637Z,86.29
2018-12-14T17:15:08.270Z,88.12
2018-12-14T17:18:11.585Z,85.98
2018-12-14T17:21:14.925Z,86.15
2018-12-14T17:24:18.278Z,86.14
2018-12-14T17:27:21.609Z,86.24
2018-12-14T17:30:24.983Z,86.82
2018-12-14T17:33:28.329Z,87.58
2018-12-14T17:36:31.693Z,87.84
2018-12-14T17:39:35.073Z,86.66
2018-12-14T17:42:38.481Z,86.63
2018-12-14T17:45:41.886Z,87.14
2018-12-14T17:48:45.181Z,87.11
2018-12-14T17:51:48.725Z,88.06
2018-12-14T17:54:52.068Z,87.92
2018-12-14T17:57:55.478Z,88.95
2018-12-14T18:00:58.910Z,88.45
2018-12-14T18:04:02.331Z,88.83
2018-12-14T18:07:05.783Z,88.38
2018-12-14T18:10:09.312Z,87.84
2018-12-14T18:13:12.702Z,87.91
2018-12-14T18:16:16.648Z,87.20
2018-12-14T18:19:20.658Z,87.58
2018-12-14T18:22:24.346Z,87.37
2018-12-14T18:25:27.825Z,87.22
2018-12-14T18:28:31.226Z,88.32
2018-12-14T18:31:34.731Z,88.81
2018-12-14T18:34:38.009Z,88.41
2018-12-14T18:37:41.418Z,88.98
2018-12-14T18:40:44.816Z,89.06
2018-12-14T18:43:48.165Z,89.02
2018-12-14T18:46:51.480Z,88.61
2018-12-14T18:49:54.786Z,88.98
2018-12-14T18:52:58.125Z,88.91
2018-12-14T18:56:01.534Z,90.13
2018-12-14T18:59:05.111Z,91.24
2018-12-14T19:02:08.526Z,90.08
2018-12-14T19:05:11.833Z,88.23
2018-12-14T19:08:15.220Z,87.84
2018-12-14T19:11:18.531Z,87.36
2018-12-14T19:14:21.834Z,88.03
2018-12-14T19:17:25.166Z,87.65
2018-12-14T19:20:28.493Z,86.93
2018-12-14T19:23:31.859Z,87.93
2018-12-14T19:26:35.161Z,88.15
2018-12-14T19:29:38.498Z,87.28
2018-12-14T19:32:41.813Z,87.49
2018-12-14T19:35:45.248Z,87.87
2018-12-14T19:38:48.557Z,86.75
2018-12-14T19:41:52.214Z,85.89
2018-12-14T19:44:55.601Z,85.33
2018-12-14T19:47:58.986Z,86.80
2018-12-14T19:51:02.517Z,88.31
2018-12-14T19:54:06.076Z,88.47
2018-12-14T19:57:09.525Z,88.37
2018-12-14T20:00:13.244Z,89.44
2018-12-14T20:03:16.566Z,87.97
2018-12-14T20:06:19.941Z,87.08
2018-12-14T20:09:23.242Z,87.52
2018-12-14T20:12:26.628Z,87.95
2018-12-14T20:15:29.966Z,87.52
2018-12-14T20:18:33.321Z,87.68
2018-12-14T20:21:36.682Z,88.36
2018-12-14T20:24:40.001Z,88.55
2018-12-14T20:27:43.349Z,87.91
2018-12-14T20:30:46.750Z,87.02
2018-12-14T20:33:56.116Z,87.50
2018-12-14T20:36:59.469Z,87.75
2018-12-14T20:40:02.866Z,88.29
2018-12-14T20:43:06.184Z,86.66
2018-12-14T20:46:09.493Z,86.52
2018-12-14T20:49:12.909Z,86.08
2018-12-14T20:52:16.402Z,87.04
2018-12-14T20:55:19.856Z,88.22
2018-12-14T20:58:23.225Z,88.10
2018-12-14T21:01:26.729Z,88.14
2018-12-14T21:04:30.110Z,87.76
2018-12-14T21:07:33.519Z,87.19
2018-12-14T21:10:36.903Z,86.14
2018-12-14T21:13:40.246Z,88.63
2018-12-14T21:16:43.597Z,87.47
2018-12-14T21:19:46.926Z,88.17
2018-12-14T21:22:50.300Z,88.93
2018-12-14T21:25:53.646Z,88.46
2018-12-14T21:28:57.177Z,86.42
2018-12-14T21:32:00.656Z,87.12
2018-12-14T21:35:05.369Z,86.49
2018-12-14T21:38:08.673Z,87.96
2018-12-14T21:41:12.023Z,87.23
2018-12-14T21:44:15.325Z,88.56
2018-12-14T21:47:18.676Z,89.31
2018-12-14T21:50:22.012Z,88.61
2018-12-14T21:53:25.386Z,88.54
2018-12-14T21:56:28.764Z,88.64
2018-12-14T21:59:32.124Z,87.90
2018-12-14T22:02:35.441Z,88.46
2018-12-14T22:05:38.774Z,88.86
2018-12-14T22:08:42.125Z,87.74
2018-12-14T22:11:46.498Z,87.95
2018-12-14T22:14:49.833Z,87.31
2018-12-14T22:17:53.174Z,87.06
2018-12-14T22:20:56.472Z,87.14
2018-12-14T22:23:59.931Z,86.44
2018-12-14T22:27:03.294Z,86.49
2018-12-14T22:30:06.986Z,86.42
2018-12-14T22:33:10.394Z,86.86
2018-12-14T22:36:13.769Z,88.56
2018-12-14T22:39:17.113Z,88.28
2018-12-14T22:42:20.417Z,87.92
2018-12-14T22:45:23.785Z,88.25
2018-12-14T22:48:27.231Z,88.22
2018-12-14T22:51:30.539Z,87.77
2018-12-14T22:54:35.158Z,86.92
2018-12-14T22:57:39.461Z,87.08
2018-12-14T23:00:48.397Z,88.79
2018-12-14T23:03:51.906Z,88.00
2018-12-14T23:06:55.245Z,88.08
2018-12-14T23:09:58.600Z,87.87
2018-12-14T23:13:01.971Z,87.56
2018-12-14T23:16:05.306Z,88.38
2018-12-14T23:19:08.726Z,87.96
2018-12-14T23:22:12.037Z,88.87
2018-12-14T23:25:15.441Z,88.96
2018-12-14T23:28:18.807Z,89.10
2018-12-14T23:31:22.188Z,88.25
2018-12-14T23:34:25.502Z,87.08
2018-12-14T23:37:28.803Z,87.54
2018-12-14T23:40:32.092Z,87.15
2018-12-14T23:43:35.445Z,87.44
2018-12-14T23:46:38.772Z,87.71
2018-12-14T23:49:42.876Z,87.44
2018-12-14T23:52:46.589Z,88.04
2018-12-14T23:55:49.906Z,88.08
2018-12-14T23:58:53.240Z,88.39
